sensor_id;sensor_type;location;lat;lon;timestamp;pressure;altitude;pressure_sealevel;temperature;humidity
64352;BME280;50680;52.626;-8.668;2023-04-29T00:01:14;101735.81;;;13.20;100.00
64352;BME280;50680;52.626;-8.668;2023-04-29T00:03:40;101742.03;;;13.19;100.00
64352;BME280;50680;52.626;-8.668;2023-04-29T00:06:08;101740.31;;;13.18;100.00
64352;BME280;50680;52.626;-8.668;2023-04-29T00:08:37;101744.69;;;13.19;100.00
64352;BME280;50680;52.626;-8.668;2023-04-29T00:11:03;101723.59;;;13.03;100.00
64352;BME280;50680;52.626;-8.668;2023-04-29T00:13:31;101742.13;;;13.17;100.00
64352;BME280;50680;52.626;-8.668;2023-04-29T00:15:57;101744.00;;;13.15;100.00
64352;BME280;50680;52.626;-8.668;2023-04-29T00:18:24;101741.34;;;13.15;100.00
64352;BME280;50680;52.626;-8.668;2023-04-29T00:20:51;101744.91;;;13.14;100.00
64352;BME280;50680;52.626;-8.668;2023-04-29T00:23:18;101740.59;;;13.13;100.00
64352;BME280;50680;52.626;-8.668;2023-04-29T00:25:45;101747.69;;;13.11;100.00
64352;BME280;50680;52.626;-8.668;2023-04-29T00:28:12;101745.25;;;13.08;100.00
64352;BME280;50680;52.626;-8.668;2023-04-29T00:30:39;101740.06;;;13.07;100.00
64352;BME280;50680;52.626;-8.668;2023-04-29T00:33:06;101737.50;;;13.05;100.00
64352;BME280;50680;52.626;-8.668;2023-04-29T00:35:33;101737.66;;;13.02;100.00
64352;BME280;50680;52.626;-8.668;2023-04-29T00:38:00;101735.13;;;13.01;100.00
64352;BME280;50680;52.626;-8.668;2023-04-29T00:40:27;101746.69;;;12.98;100.00
64352;BME280;50680;52.626;-8.668;2023-04-29T00:42:54;101731.28;;;12.90;100.00
64352;BME280;50680;52.626;-8.668;2023-04-29T00:45:21;101747.59;;;12.97;100.00
64352;BME280;50680;52.626;-8.668;2023-04-29T00:47:49;101754.50;;;13.00;100.00
64352;BME280;50680;52.626;-8.668;2023-04-29T00:50:16;101751.59;;;13.04;100.00
64352;BME280;50680;52.626;-8.668;2023-04-29T00:52:43;101760.25;;;13.06;100.00
64352;BME280;50680;52.626;-8.668;2023-04-29T00:55:10;101753.16;;;13.08;100.00
64352;BME280;50680;52.626;-8.668;2023-04-29T00:57:41;101745.25;;;13.08;100.00
64352;BME280;50680;52.626;-8.668;2023-04-29T01:00:08;101749.66;;;13.08;100.00
64352;BME280;50680;52.626;-8.668;2023-04-29T01:02:36;101754.06;;;13.07;100.00
64352;BME280;50680;52.626;-8.668;2023-04-29T01:05:04;101743.09;;;12.99;100.00
64352;BME280;50680;52.626;-8.668;2023-04-29T01:07:43;101747.97;;;13.07;100.00
64352;BME280;50680;52.626;-8.668;2023-04-29T01:10:21;101755.00;;;13.06;100.00
64352;BME280;50680;52.626;-8.668;2023-04-29T01:13:01;101751.59;;;13.04;100.00
64352;BME280;50680;52.626;-8.668;2023-04-29T01:15:39;101746.34;;;13.04;100.00
64352;BME280;50680;52.626;-8.668;2023-04-29T01:18:13;101740.22;;;13.04;100.00
64352;BME280;50680;52.626;-8.668;2023-04-29T01:20:41;101743.09;;;12.99;100.00
64352;BME280;50680;52.626;-8.668;2023-04-29T01:23:10;101741.41;;;12.98;100.00
64352;BME280;50680;52.626;-8.668;2023-04-29T01:25:37;101746.69;;;12.98;100.00
64352;BME280;50680;52.626;-8.668;2023-04-29T01:39:06;101743.28;;;12.96;100.00
64352;BME280;50680;52.626;-8.668;2023-04-29T01:41:52;101741.56;;;12.95;100.00
64352;BME280;50680;52.626;-8.668;2023-04-29T01:44:27;101739.78;;;12.95;100.00
64352;BME280;50680;52.626;-8.668;2023-04-29T01:46:55;101745.91;;;12.96;100.00
64352;BME280;50680;52.626;-8.668;2023-04-29T01:49:27;101742.31;;;12.97;100.00
64352;BME280;50680;52.626;-8.668;2023-04-29T01:51:54;101751.06;;;12.97;100.00
64352;BME280;50680;52.626;-8.668;2023-04-29T01:54:21;101746.69;;;12.98;100.00
64352;BME280;50680;52.626;-8.668;2023-04-29T01:56:48;101744.97;;;12.97;100.00
64352;BME280;50680;52.626;-8.668;2023-04-29T01:59:15;101742.25;;;12.98;100.00
64352;BME280;50680;52.626;-8.668;2023-04-29T02:01:42;101742.31;;;12.97;100.00
64352;BME280;50680;52.626;-8.668;2023-04-29T02:04:09;101746.69;;;12.98;100.00
64352;BME280;50680;52.626;-8.668;2023-04-29T02:06:36;101748.53;;;12.96;100.00
64352;BME280;50680;52.626;-8.668;2023-04-29T02:09:03;101745.03;;;12.95;100.00
64352;BME280;50680;52.626;-8.668;2023-04-29T02:11:29;101737.41;;;12.91;100.00
64352;BME280;50680;52.626;-8.668;2023-04-29T02:13:57;101747.94;;;12.91;100.00
64352;BME280;50680;52.626;-8.668;2023-04-29T02:16:23;101750.38;;;12.94;100.00
64352;BME280;50680;52.626;-8.668;2023-04-29T02:18:50;101746.84;;;12.95;100.00
64352;BME280;50680;52.626;-8.668;2023-04-29T02:21:17;101745.13;;;12.94;100.00
64352;BME280;50680;52.626;-8.668;2023-04-29T02:23:44;101744.28;;;12.93;100.00
64352;BME280;50680;52.626;-8.668;2023-04-29T02:26:10;101745.13;;;12.94;100.00
64352;BME280;50680;52.626;-8.668;2023-04-29T02:28:39;101752.25;;;12.92;100.00
64352;BME280;50680;52.626;-8.668;2023-04-29T02:31:06;101746.97;;;12.92;100.00
64352;BME280;50680;52.626;-8.668;2023-04-29T02:33:33;101744.34;;;12.92;100.00
64352;BME280;50680;52.626;-8.668;2023-04-29T02:35:59;101746.97;;;12.92;100.00
64352;BME280;50680;52.626;-8.668;2023-04-29T02:38:26;101739.31;;;12.87;100.00
64352;BME280;50680;52.626;-8.668;2023-04-29T02:40:53;101755.84;;;12.91;100.00
64352;BME280;50680;52.626;-8.668;2023-04-29T02:43:20;101744.50;;;12.89;100.00
64352;BME280;50680;52.626;-8.668;2023-04-29T02:45:47;101748.09;;;12.88;100.00
64352;BME280;50680;52.626;-8.668;2023-04-29T02:48:14;101742.97;;;12.85;100.00
64352;BME280;50680;52.626;-8.668;2023-04-29T02:50:41;101743.13;;;12.82;100.00
64352;BME280;50680;52.626;-8.668;2023-04-29T02:53:08;101740.66;;;12.78;100.00
64352;BME280;50680;52.626;-8.668;2023-04-29T02:55:34;101747.63;;;12.79;100.00
64352;BME280;50680;52.626;-8.668;2023-04-29T02:58:02;101742.53;;;12.76;100.00
64352;BME280;50680;52.626;-8.668;2023-04-29T03:00:29;101738.13;;;12.77;100.00
64352;BME280;50680;52.626;-8.668;2023-04-29T03:02:56;101745.91;;;12.78;100.00
64352;BME280;50680;52.626;-8.668;2023-04-29T03:05:23;101746.09;;;12.75;100.00
64352;BME280;50680;52.626;-8.668;2023-04-29T03:07:50;101747.78;;;12.76;100.00
64352;BME280;50680;52.626;-8.668;2023-04-29T03:10:17;101746.88;;;12.77;100.00
64352;BME280;50680;52.626;-8.668;2023-04-29T03:12:44;101749.50;;;12.77;100.00
64352;BME280;50680;52.626;-8.668;2023-04-29T03:15:11;101756.44;;;12.78;100.00
64352;BME280;50680;52.626;-8.668;2023-04-29T03:17:38;101759.06;;;12.78;100.00
64352;BME280;50680;52.626;-8.668;2023-04-29T03:20:06;101758.16;;;12.79;100.00
64352;BME280;50680;52.626;-8.668;2023-04-29T03:22:33;101765.13;;;12.81;100.00
64352;BME280;50680;52.626;-8.668;2023-04-29T03:25:00;101763.44;;;12.79;100.00
64352;BME280;50680;52.626;-8.668;2023-04-29T03:27:27;101768.69;;;12.79;100.00
64352;BME280;50680;52.626;-8.668;2023-04-29T03:29:54;101772.97;;;12.82;100.00
64352;BME280;50680;52.626;-8.668;2023-04-29T03:32:21;101773.94;;;12.79;100.00
64352;BME280;50680;52.626;-8.668;2023-04-29T03:34:48;101770.22;;;12.84;100.00
64352;BME280;50680;52.626;-8.668;2023-04-29T03:37:15;101769.31;;;12.85;100.00
64352;BME280;50680;52.626;-8.668;2023-04-29T03:39:44;101769.31;;;12.85;100.00
64352;BME280;50680;52.626;-8.668;2023-04-29T03:42:11;101765.91;;;12.83;100.00
64352;BME280;50680;52.626;-8.668;2023-04-29T03:44:38;101773.03;;;12.81;100.00
64352;BME280;50680;52.626;-8.668;2023-04-29T03:47:05;101768.69;;;12.79;100.00
64352;BME280;50680;52.626;-8.668;2023-04-29T03:49:32;101768.69;;;12.79;100.00
64352;BME280;50680;52.626;-8.668;2023-04-29T03:51:59;101772.09;;;12.82;100.00
64352;BME280;50680;52.626;-8.668;2023-04-29T03:54:26;101764.19;;;12.82;100.00
64352;BME280;50680;52.626;-8.668;2023-04-29T03:56:53;101765.97;;;12.81;100.00
64352;BME280;50680;52.626;-8.668;2023-04-29T03:59:21;101760.72;;;12.81;100.00
64352;BME280;50680;52.626;-8.668;2023-04-29T04:01:48;101762.50;;;12.81;100.00
64352;BME280;50680;52.626;-8.668;2023-04-29T04:04:15;101766.06;;;12.79;100.00
64352;BME280;50680;52.626;-8.668;2023-04-29T04:06:43;101765.97;;;12.81;100.00
64352;BME280;50680;52.626;-8.668;2023-04-29T04:09:19;101767.84;;;12.79;100.00
64352;BME280;50680;52.626;-8.668;2023-04-29T04:11:46;101773.19;;;12.77;100.00
64352;BME280;50680;52.626;-8.668;2023-04-29T04:14:13;101763.44;;;12.79;100.00
64352;BME280;50680;52.626;-8.668;2023-04-29T04:16:40;101765.13;;;12.81;100.00
64352;BME280;50680;52.626;-8.668;2023-04-29T04:19:06;101760.72;;;12.81;100.00
64352;BME280;50680;52.626;-8.668;2023-04-29T04:21:34;101756.28;;;12.82;100.00
64352;BME280;50680;52.626;-8.668;2023-04-29T04:24:01;101751.78;;;12.84;100.00
64352;BME280;50680;52.626;-8.668;2023-04-29T04:26:28;101758.78;;;12.85;100.00
64352;BME280;50680;52.626;-8.668;2023-04-29T04:28:55;101757.06;;;12.84;100.00
64352;BME280;50680;52.626;-8.668;2023-04-29T04:31:22;101754.44;;;12.84;100.00
64352;BME280;50680;52.626;-8.668;2023-04-29T04:33:49;101758.78;;;12.85;100.00
64352;BME280;50680;52.626;-8.668;2023-04-29T04:36:16;101750.88;;;12.85;100.00
64352;BME280;50680;52.626;-8.668;2023-04-29T04:38:43;101750.94;;;12.83;100.00
64352;BME280;50680;52.626;-8.668;2023-04-29T04:41:09;101750.19;;;12.81;100.00
64352;BME280;50680;52.626;-8.668;2023-04-29T04:43:36;101752.75;;;12.83;100.00
64352;BME280;50680;52.626;-8.668;2023-04-29T04:46:11;101758.78;;;12.85;100.00
64352;BME280;50680;52.626;-8.668;2023-04-29T04:48:38;101750.13;;;12.83;100.00
64352;BME280;50680;52.626;-8.668;2023-04-29T04:51:09;101742.22;;;12.83;100.00
64352;BME280;50680;52.626;-8.668;2023-04-29T04:53:36;101742.38;;;12.79;100.00
64352;BME280;50680;52.626;-8.668;2023-04-29T04:56:04;101730.31;;;12.75;100.00
64352;BME280;50680;52.626;-8.668;2023-04-29T04:58:31;101730.38;;;12.74;100.00
64352;BME280;50680;52.626;-8.668;2023-04-29T05:00:59;101734.16;;;12.68;100.00
64352;BME280;50680;52.626;-8.668;2023-04-29T05:03:26;101735.03;;;12.69;100.00
64352;BME280;50680;52.626;-8.668;2023-04-29T05:05:58;101739.63;;;12.65;100.00
64352;BME280;50680;52.626;-8.668;2023-04-29T05:08:25;101743.25;;;12.63;100.00
64352;BME280;50680;52.626;-8.668;2023-04-29T05:10:52;101754.78;;;12.60;100.00
64352;BME280;50680;52.626;-8.668;2023-04-29T05:13:20;101759.19;;;12.59;100.00
64352;BME280;50680;52.626;-8.668;2023-04-29T05:15:46;101749.75;;;12.55;100.00
64352;BME280;50680;52.626;-8.668;2023-04-29T05:18:13;101751.75;;;12.50;100.00
64352;BME280;50680;52.626;-8.668;2023-04-29T05:20:40;101757.72;;;12.54;100.00
64352;BME280;50680;52.626;-8.668;2023-04-29T05:23:07;101757.56;;;12.57;100.00
64352;BME280;50680;52.626;-8.668;2023-04-29T05:25:35;101761.72;;;12.61;100.00
64352;BME280;50680;52.626;-8.668;2023-04-29T05:28:02;101766.06;;;12.62;100.00
64352;BME280;50680;52.626;-8.668;2023-04-29T05:30:30;101765.31;;;12.60;100.00
64352;BME280;50680;52.626;-8.668;2023-04-29T05:32:56;101773.06;;;12.63;100.00
64352;BME280;50680;52.626;-8.668;2023-04-29T05:35:24;101772.09;;;12.64;100.00
64352;BME280;50680;52.626;-8.668;2023-04-29T05:37:51;101775.50;;;12.66;100.00
64352;BME280;50680;52.626;-8.668;2023-04-29T05:40:17;101764.75;;;12.71;100.00
64352;BME280;50680;52.626;-8.668;2023-04-29T05:42:44;101769.78;;;12.75;100.00
64352;BME280;50680;52.626;-8.668;2023-04-29T05:45:12;101773.09;;;12.79;100.00
64352;BME280;50680;52.626;-8.668;2023-04-29T05:47:39;101778.91;;;12.86;100.00
64352;BME280;50680;52.626;-8.668;2023-04-29T05:50:06;101772.53;;;12.90;100.00
64352;BME280;50680;52.626;-8.668;2023-04-29T05:52:33;101764.84;;;13.03;100.00
64352;BME280;50680;52.626;-8.668;2023-04-29T05:55:00;101762.50;;;13.14;100.00
64352;BME280;50680;52.626;-8.668;2023-04-29T05:57:26;101755.25;;;13.35;100.00
64352;BME280;50680;52.626;-8.668;2023-04-29T05:59:53;101749.50;;;13.60;100.00
64352;BME280;50680;52.626;-8.668;2023-04-29T06:02:25;101750.63;;;14.02;100.00
64352;BME280;50680;52.626;-8.668;2023-04-29T06:04:53;101753.91;;;14.52;100.00
64352;BME280;50680;52.626;-8.668;2023-04-29T06:07:20;101766.72;;;15.32;100.00
64352;BME280;50680;52.626;-8.668;2023-04-29T06:09:47;101760.56;;;16.14;100.00
64352;BME280;50680;52.626;-8.668;2023-04-29T06:12:14;101767.16;;;16.87;100.00
64352;BME280;50680;52.626;-8.668;2023-04-29T06:14:41;101764.09;;;17.56;100.00
64352;BME280;50680;52.626;-8.668;2023-04-29T06:17:08;101762.03;;;18.32;100.00
64352;BME280;50680;52.626;-8.668;2023-04-29T06:19:35;101762.91;;;19.13;100.00
64352;BME280;50680;52.626;-8.668;2023-04-29T06:22:02;101760.72;;;19.96;100.00
64352;BME280;50680;52.626;-8.668;2023-04-29T06:24:29;101746.59;;;20.59;100.00
64352;BME280;50680;52.626;-8.668;2023-04-29T06:26:55;101749.47;;;21.29;100.00
64352;BME280;50680;52.626;-8.668;2023-04-29T06:29:22;101754.63;;;21.71;100.00
64352;BME280;50680;52.626;-8.668;2023-04-29T06:31:49;101741.28;;;22.20;100.00
64352;BME280;50680;52.626;-8.668;2023-04-29T06:34:16;101741.06;;;22.70;100.00
64352;BME280;50680;52.626;-8.668;2023-04-29T06:36:43;101744.47;;;23.09;100.00
64352;BME280;50680;52.626;-8.668;2023-04-29T06:39:10;101745.09;;;23.49;100.00
64352;BME280;50680;52.626;-8.668;2023-04-29T06:41:37;101750.09;;;23.80;100.00
64352;BME280;50680;52.626;-8.668;2023-04-29T06:44:04;101743.69;;;24.09;100.00
64352;BME280;50680;52.626;-8.668;2023-04-29T06:46:31;101738.72;;;24.14;100.00
64352;BME280;50680;52.626;-8.668;2023-04-29T06:48:57;101737.34;;;23.92;100.00
64352;BME280;50680;52.626;-8.668;2023-04-29T06:51:24;101739.75;;;24.21;100.00
64352;BME280;50680;52.626;-8.668;2023-04-29T06:53:53;101741.88;;;24.35;100.00
64352;BME280;50680;52.626;-8.668;2023-04-29T06:56:20;101746.75;;;24.58;100.00
64352;BME280;50680;52.626;-8.668;2023-04-29T06:58:47;101746.66;;;24.68;100.00
64352;BME280;50680;52.626;-8.668;2023-04-29T07:01:14;101748.94;;;24.89;100.00
64352;BME280;50680;52.626;-8.668;2023-04-29T07:03:40;101742.47;;;24.73;100.00
64352;BME280;50680;52.626;-8.668;2023-04-29T07:06:07;101745.16;;;24.73;100.00
64352;BME280;50680;52.626;-8.668;2023-04-29T07:08:34;101750.25;;;24.58;100.00
64352;BME280;50680;52.626;-8.668;2023-04-29T07:11:01;101751.19;;;23.87;100.00
64352;BME280;50680;52.626;-8.668;2023-04-29T07:13:28;101751.16;;;23.23;100.00
64352;BME280;50680;52.626;-8.668;2023-04-29T07:15:55;101752.47;;;22.72;100.00
64352;BME280;50680;52.626;-8.668;2023-04-29T07:18:22;101756.50;;;22.29;100.00
64352;BME280;50680;52.626;-8.668;2023-04-29T07:20:49;101761.13;;;21.88;100.00
64352;BME280;50680;52.626;-8.668;2023-04-29T07:23:18;101758.44;;;21.18;100.00
64352;BME280;50680;52.626;-8.668;2023-04-29T07:25:45;101761.63;;;20.60;100.00
64352;BME280;50680;52.626;-8.668;2023-04-29T07:28:12;101763.88;;;20.43;100.00
64352;BME280;50680;52.626;-8.668;2023-04-29T07:30:39;101769.16;;;20.34;100.00
64352;BME280;50680;52.626;-8.668;2023-04-29T07:33:05;101762.78;;;19.92;100.00
64352;BME280;50680;52.626;-8.668;2023-04-29T07:35:32;101774.44;;;19.69;100.00
64352;BME280;50680;52.626;-8.668;2023-04-29T07:37:59;101779.78;;;19.58;100.00
64352;BME280;50680;52.626;-8.668;2023-04-29T07:40:26;101779.72;;;19.37;100.00
64352;BME280;50680;52.626;-8.668;2023-04-29T07:42:53;101776.22;;;19.25;100.00
64352;BME280;50680;52.626;-8.668;2023-04-29T07:45:20;101780.22;;;19.19;100.00
64352;BME280;50680;52.626;-8.668;2023-04-29T07:47:46;101784.78;;;19.28;100.00
64352;BME280;50680;52.626;-8.668;2023-04-29T07:50:13;101791.41;;;19.34;100.00
64352;BME280;50680;52.626;-8.668;2023-04-29T07:52:41;101786.81;;;19.47;100.00
64352;BME280;50680;52.626;-8.668;2023-04-29T07:55:08;101784.25;;;19.68;100.00
64352;BME280;50680;52.626;-8.668;2023-04-29T07:57:35;101785.72;;;19.72;100.00
64352;BME280;50680;52.626;-8.668;2023-04-29T08:00:02;101785.59;;;19.74;100.00
64352;BME280;50680;52.626;-8.668;2023-04-29T08:02:29;101785.00;;;19.59;100.00
64352;BME280;50680;52.626;-8.668;2023-04-29T08:04:56;101784.41;;;19.44;100.00
64352;BME280;50680;52.626;-8.668;2023-04-29T08:07:24;101777.66;;;19.40;100.00
64352;BME280;50680;52.626;-8.668;2023-04-29T08:09:50;101785.88;;;19.48;100.00
64352;BME280;50680;52.626;-8.668;2023-04-29T08:12:17;101793.09;;;19.46;100.00
64352;BME280;50680;52.626;-8.668;2023-04-29T08:14:44;101788.38;;;19.50;100.00
64352;BME280;50680;52.626;-8.668;2023-04-29T08:17:11;101785.38;;;19.43;100.00
64352;BME280;50680;52.626;-8.668;2023-04-29T08:19:38;101796.28;;;19.40;100.00
64352;BME280;50680;52.626;-8.668;2023-04-29T08:22:04;101790.13;;;19.40;100.00
64352;BME280;50680;52.626;-8.668;2023-04-29T08:24:31;101796.16;;;19.30;100.00
64352;BME280;50680;52.626;-8.668;2023-04-29T08:27:00;101792.16;;;19.25;100.00
64352;BME280;50680;52.626;-8.668;2023-04-29T08:29:30;101789.75;;;19.10;100.00
64352;BME280;50680;52.626;-8.668;2023-04-29T08:31:58;101792.53;;;19.09;100.00
64352;BME280;50680;52.626;-8.668;2023-04-29T08:34:25;101799.88;;;18.94;100.00
64352;BME280;50680;52.626;-8.668;2023-04-29T08:36:52;101801.53;;;18.72;100.00
64352;BME280;50680;52.626;-8.668;2023-04-29T08:39:19;101797.88;;;18.62;100.00
64352;BME280;50680;52.626;-8.668;2023-04-29T08:41:46;101802.06;;;18.53;100.00
64352;BME280;50680;52.626;-8.668;2023-04-29T08:44:17;101809.66;;;18.47;100.00
64352;BME280;50680;52.626;-8.668;2023-04-29T08:46:44;101805.78;;;18.51;100.00
64352;BME280;50680;52.626;-8.668;2023-04-29T08:49:12;101816.19;;;18.54;100.00
64352;BME280;50680;52.626;-8.668;2023-04-29T08:51:40;101807.19;;;18.68;100.00
64352;BME280;50680;52.626;-8.668;2023-04-29T08:54:06;101805.09;;;18.60;100.00
64352;BME280;50680;52.626;-8.668;2023-04-29T08:56:33;101801.03;;;18.78;100.00
64352;BME280;50680;52.626;-8.668;2023-04-29T08:59:01;101807.34;;;18.89;100.00
64352;BME280;50680;52.626;-8.668;2023-04-29T09:01:28;101802.28;;;19.08;100.00
64352;BME280;50680;52.626;-8.668;2023-04-29T09:04:18;101799.41;;;19.23;100.00
64352;BME280;50680;52.626;-8.668;2023-04-29T09:06:47;101793.00;;;19.25;100.00
64352;BME280;50680;52.626;-8.668;2023-04-29T09:09:14;101796.59;;;19.69;100.00
64352;BME280;50680;52.626;-8.668;2023-04-29T09:11:41;101793.00;;;20.03;100.00
64352;BME280;50680;52.626;-8.668;2023-04-29T09:14:08;101790.97;;;20.27;100.00
64352;BME280;50680;52.626;-8.668;2023-04-29T09:16:35;101795.34;;;20.50;100.00
64352;BME280;50680;52.626;-8.668;2023-04-29T09:19:03;101796.63;;;20.66;100.00
64352;BME280;50680;52.626;-8.668;2023-04-29T09:21:30;101800.38;;;20.85;100.00
64352;BME280;50680;52.626;-8.668;2023-04-29T09:24:02;101790.88;;;20.92;100.00
64352;BME280;50680;52.626;-8.668;2023-04-29T09:26:41;101791.84;;;20.91;100.00
64352;BME280;50680;52.626;-8.668;2023-04-29T09:29:12;101792.34;;;21.06;100.00
64352;BME280;50680;52.626;-8.668;2023-04-29T09:31:41;101787.38;;;21.32;100.00
64352;BME280;50680;52.626;-8.668;2023-04-29T09:34:08;101791.91;;;21.41;100.00
64352;BME280;50680;52.626;-8.668;2023-04-29T09:36:48;101794.22;;;21.56;100.00
64352;BME280;50680;52.626;-8.668;2023-04-29T09:39:18;101792.28;;;21.68;100.00
64352;BME280;50680;52.626;-8.668;2023-04-29T09:44:19;101797.38;;;21.90;100.00
64352;BME280;50680;52.626;-8.668;2023-04-29T09:46:59;101781.38;;;22.10;100.00
64352;BME280;50680;52.626;-8.668;2023-04-29T09:49:30;101785.44;;;22.33;100.00
64352;BME280;50680;52.626;-8.668;2023-04-29T09:52:03;101782.22;;;22.30;100.00
64352;BME280;50680;52.626;-8.668;2023-04-29T09:54:31;101784.06;;;22.39;100.00
64352;BME280;50680;52.626;-8.668;2023-04-29T09:57:00;101785.03;;;22.48;100.00
64352;BME280;50680;52.626;-8.668;2023-04-29T09:59:38;101791.50;;;22.26;100.00
64352;BME280;50680;52.626;-8.668;2023-04-29T10:02:16;101786.81;;;21.89;100.00
64352;BME280;50680;52.626;-8.668;2023-04-29T10:04:46;101791.31;;;21.88;100.00
64352;BME280;50680;52.626;-8.668;2023-04-29T10:07:17;101797.63;;;21.68;100.00
64352;BME280;50680;52.626;-8.668;2023-04-29T10:09:46;101789.44;;;21.50;100.00
64352;BME280;50680;52.626;-8.668;2023-04-29T10:12:18;101791.84;;;21.22;100.00
64352;BME280;50680;52.626;-8.668;2023-04-29T10:17:26;101784.56;;;20.51;100.00
64352;BME280;50680;52.626;-8.668;2023-04-29T10:20:05;101804.34;;;20.16;100.00
64352;BME280;50680;52.626;-8.668;2023-04-29T10:22:44;101818.31;;;19.97;100.00
64352;BME280;50680;52.626;-8.668;2023-04-29T10:25:17;101814.25;;;19.82;100.00
64352;BME280;50680;52.626;-8.668;2023-04-29T10:27:45;101814.97;;;19.61;100.00
64352;BME280;50680;52.626;-8.668;2023-04-29T10:30:14;101808.47;;;19.31;100.00
64352;BME280;50680;52.626;-8.668;2023-04-29T10:32:46;101818.38;;;19.18;100.00
64352;BME280;50680;52.626;-8.668;2023-04-29T10:35:19;101819.69;;;19.01;100.00
64352;BME280;50680;52.626;-8.668;2023-04-29T10:37:49;101822.72;;;18.96;100.00
64352;BME280;50680;52.626;-8.668;2023-04-29T10:42:56;101822.59;;;18.98;100.00
64352;BME280;50680;52.626;-8.668;2023-04-29T10:45:30;101823.06;;;18.92;100.00
64352;BME280;50680;52.626;-8.668;2023-04-29T10:50:33;101825.28;;;19.09;100.00
64352;BME280;50680;52.626;-8.668;2023-04-29T10:53:04;101827.59;;;19.14;100.00
64352;BME280;50680;52.626;-8.668;2023-04-29T10:55:35;101824.31;;;19.22;100.00
64352;BME280;50680;52.626;-8.668;2023-04-29T10:58:04;101821.41;;;19.36;100.00
64352;BME280;50680;52.626;-8.668;2023-04-29T11:00:33;101836.75;;;19.55;100.00
64352;BME280;50680;52.626;-8.668;2023-04-29T11:03:01;101827.22;;;19.75;100.00
64352;BME280;50680;52.626;-8.668;2023-04-29T11:05:32;101832.22;;;20.01;100.00
64352;BME280;50680;52.626;-8.668;2023-04-29T11:08:10;101838.03;;;19.95;100.00
64352;BME280;50680;52.626;-8.668;2023-04-29T11:10:42;101832.38;;;19.88;100.00
64352;BME280;50680;52.626;-8.668;2023-04-29T11:13:26;101833.75;;;19.48;100.00
64352;BME280;50680;52.626;-8.668;2023-04-29T11:18:31;101841.72;;;19.14;100.00
64352;BME280;50680;52.626;-8.668;2023-04-29T11:23:50;101838.44;;;18.75;100.00
64352;BME280;50680;52.626;-8.668;2023-04-29T11:26:20;101842.13;;;18.50;100.00
64352;BME280;50680;52.626;-8.668;2023-04-29T11:28:47;101846.78;;;18.35;100.00
64352;BME280;50680;52.626;-8.668;2023-04-29T11:31:14;101854.31;;;18.17;100.00
64352;BME280;50680;52.626;-8.668;2023-04-29T11:33:41;101850.31;;;18.12;100.00
64352;BME280;50680;52.626;-8.668;2023-04-29T11:36:09;101847.88;;;18.09;100.00
64352;BME280;50680;52.626;-8.668;2023-04-29T11:38:39;101835.84;;;18.16;100.00
64352;BME280;50680;52.626;-8.668;2023-04-29T11:41:10;101837.25;;;18.33;100.00
64352;BME280;50680;52.626;-8.668;2023-04-29T11:43:37;101833.34;;;18.50;100.00
64352;BME280;50680;52.626;-8.668;2023-04-29T11:46:13;101835.44;;;18.69;100.00
64352;BME280;50680;52.626;-8.668;2023-04-29T11:48:48;101831.31;;;19.00;100.00
64352;BME280;50680;52.626;-8.668;2023-04-29T11:51:16;101819.00;;;19.22;100.00
64352;BME280;50680;52.626;-8.668;2023-04-29T11:53:44;101820.94;;;19.53;100.00
64352;BME280;50680;52.626;-8.668;2023-04-29T11:56:11;101815.31;;;19.90;100.00
64352;BME280;50680;52.626;-8.668;2023-04-29T11:58:41;101812.13;;;20.40;100.00
64352;BME280;50680;52.626;-8.668;2023-04-29T12:01:08;101812.47;;;20.89;100.00
64352;BME280;50680;52.626;-8.668;2023-04-29T12:03:35;101805.63;;;20.96;100.00
64352;BME280;50680;52.626;-8.668;2023-04-29T12:06:03;101805.94;;;21.44;100.00
64352;BME280;50680;52.626;-8.668;2023-04-29T12:08:32;101799.16;;;21.51;100.00
64352;BME280;50680;52.626;-8.668;2023-04-29T12:11:00;101796.00;;;21.46;100.00
64352;BME280;50680;52.626;-8.668;2023-04-29T12:13:30;101798.94;;;21.42;100.00
64352;BME280;50680;52.626;-8.668;2023-04-29T12:15:57;101792.09;;;21.19;100.00
64352;BME280;50680;52.626;-8.668;2023-04-29T12:18:24;101786.72;;;21.09;100.00
64352;BME280;50680;52.626;-8.668;2023-04-29T12:20:53;101784.72;;;21.01;100.00
64352;BME280;50680;52.626;-8.668;2023-04-29T12:23:24;101769.69;;;21.00;100.00
64352;BME280;50680;52.626;-8.668;2023-04-29T12:25:57;101778.91;;;21.17;100.00
64352;BME280;50680;52.626;-8.668;2023-04-29T12:28:25;101779.91;;;21.57;100.00
64352;BME280;50680;52.626;-8.668;2023-04-29T12:30:53;101776.00;;;21.71;100.00
64352;BME280;50680;52.626;-8.668;2023-04-29T12:33:21;101775.72;;;21.93;100.00
64352;BME280;50680;52.626;-8.668;2023-04-29T12:35:49;101774.31;;;21.99;100.00
64352;BME280;50680;52.626;-8.668;2023-04-29T12:38:34;101774.91;;;21.93;100.00
64352;BME280;50680;52.626;-8.668;2023-04-29T12:41:01;101771.25;;;22.04;100.00
64352;BME280;50680;52.626;-8.668;2023-04-29T12:43:31;101774.63;;;22.15;100.00
64352;BME280;50680;52.626;-8.668;2023-04-29T12:46:09;101774.47;;;22.07;100.00
64352;BME280;50680;52.626;-8.668;2023-04-29T12:48:40;101777.38;;;21.75;100.00
64352;BME280;50680;52.626;-8.668;2023-04-29T12:51:09;101779.56;;;21.40;100.00
64352;BME280;50680;52.626;-8.668;2023-04-29T12:53:36;101783.66;;;21.14;100.00
64352;BME280;50680;52.626;-8.668;2023-04-29T12:56:04;101773.53;;;21.08;100.00
64352;BME280;50680;52.626;-8.668;2023-04-29T12:58:32;101783.59;;;20.94;100.00
64352;BME280;50680;52.626;-8.668;2023-04-29T13:01:02;101767.72;;;20.93;100.00
64352;BME280;50680;52.626;-8.668;2023-04-29T13:03:29;101761.53;;;20.92;100.00